createdAt,value
2023-04-08T00:00:58.136Z,96.64
2023-04-08T00:03:59.378Z,97.24
2023-04-08T00:07:03.181Z,98.17
2023-04-08T00:10:04.147Z,99.10
2023-04-08T00:13:07.172Z,99.70
2023-04-08T00:16:09.152Z,100.00
2023-04-08T00:19:09.233Z,100.00
2023-04-08T00:22:09.222Z,100.00
2023-04-08T00:25:09.181Z,100.00
2023-04-08T00:28:10.169Z,100.00
2023-04-08T00:31:11.270Z,100.00
2023-04-08T00:34:12.248Z,100.00
2023-04-08T00:37:12.261Z,100.00
2023-04-08T00:40:12.198Z,100.00
2023-04-08T00:43:12.237Z,100.00
2023-04-08T00:46:12.254Z,100.00
2023-04-08T00:49:13.207Z,100.00
2023-04-08T00:52:13.228Z,100.00
2023-04-08T00:55:14.246Z,100.00
2023-04-08T00:58:14.236Z,100.00
2023-04-08T01:01:25.313Z,100.00
2023-04-08T01:04:37.310Z,100.00
2023-04-08T01:07:57.233Z,100.00
2023-04-08T01:10:58.267Z,100.00
2023-04-08T01:13:58.236Z,100.00
2023-04-08T01:16:58.485Z,100.00
2023-04-08T01:19:59.226Z,100.00
2023-04-08T01:23:11.320Z,100.00
2023-04-08T01:26:12.291Z,100.00
2023-04-08T01:29:13.283Z,100.00
2023-04-08T01:32:13.371Z,100.00
2023-04-08T01:35:13.300Z,100.00
2023-04-08T01:38:15.317Z,100.00
2023-04-08T01:41:15.284Z,100.00
2023-04-08T01:44:19.303Z,100.00
2023-04-08T01:47:20.343Z,100.00
2023-04-08T01:50:22.318Z,100.00
2023-04-08T01:53:23.312Z,100.00
2023-04-08T01:56:25.330Z,100.00
2023-04-08T01:59:26.353Z,100.00
2023-04-08T02:02:26.636Z,100.00
2023-04-08T02:05:27.358Z,100.00
2023-04-08T02:08:28.352Z,100.00
2023-04-08T02:11:31.579Z,100.00
2023-04-08T02:14:32.402Z,100.00
2023-04-08T02:17:44.394Z,100.00
2023-04-08T02:20:50.384Z,100.00
2023-04-08T02:23:52.364Z,100.00
2023-04-08T02:26:53.446Z,100.00
2023-04-08T02:29:53.403Z,100.00
2023-04-08T02:32:54.467Z,100.00
2023-04-08T02:35:54.525Z,100.00
2023-04-08T02:39:03.405Z,100.00
2023-04-08T02:42:04.499Z,100.00
2023-04-08T02:45:05.439Z,100.00
2023-04-08T02:48:06.536Z,100.00
2023-04-08T02:51:21.987Z,100.00
2023-04-08T02:54:22.437Z,100.00
2023-04-08T02:57:25.498Z,100.00
2023-04-08T03:00:27.633Z,100.00
2023-04-08T03:03:37.788Z,100.00
2023-04-08T03:06:39.430Z,100.00
2023-04-08T03:09:39.503Z,100.00
2023-04-08T03:12:40.489Z,100.00
2023-04-08T03:15:41.458Z,100.00
2023-04-08T03:18:42.500Z,100.00
2023-04-08T03:21:42.574Z,100.00
2023-04-08T03:24:43.500Z,100.00
2023-04-08T03:27:46.575Z,100.00
2023-04-08T03:30:46.490Z,100.00
2023-04-08T03:33:50.543Z,100.00
2023-04-08T03:36:53.602Z,100.00
2023-04-08T03:39:53.566Z,100.00
2023-04-08T03:42:53.575Z,100.00
2023-04-08T03:45:53.552Z,100.00
2023-04-08T03:48:48.343Z,100.00
2023-04-08T03:51:49.528Z,100.00
2023-04-08T03:54:49.534Z,100.00
2023-04-08T03:57:49.589Z,100.00
2023-04-08T04:00:51.539Z,100.00
2023-04-08T04:03:59.715Z,100.00
2023-04-08T04:06:59.605Z,100.00
2023-04-08T04:10:02.551Z,100.00
2023-04-08T04:13:02.643Z,100.00
2023-04-08T04:16:04.772Z,100.00
2023-04-08T04:19:05.615Z,100.00
2023-04-08T04:22:10.605Z,100.00
2023-04-08T04:25:10.680Z,100.00
2023-04-08T04:28:11.605Z,100.00
2023-04-08T04:31:14.690Z,100.00
2023-04-08T04:34:17.593Z,100.00
2023-04-08T04:37:18.591Z,100.00
2023-04-08T04:40:21.661Z,100.00
2023-04-08T04:43:22.629Z,100.00
2023-04-08T04:46:23.703Z,100.00
2023-04-08T04:49:24.602Z,100.00
2023-04-08T04:52:28.634Z,100.00
2023-04-08T04:55:31.587Z,100.00
2023-04-08T04:58:31.661Z,100.00
2023-04-08T05:01:31.810Z,100.00
2023-04-08T05:04:33.660Z,100.00
2023-04-08T05:07:39.811Z,100.00
2023-04-08T05:10:39.729Z,100.00
2023-04-08T05:13:46.667Z,100.00
2023-04-08T05:16:47.700Z,100.00
2023-04-08T05:19:48.671Z,100.00
2023-04-08T05:22:55.695Z,100.00
2023-04-08T05:25:57.726Z,100.00
2023-04-08T05:29:01.669Z,100.00
2023-04-08T05:32:02.775Z,100.00
2023-04-08T05:35:02.795Z,100.00
2023-04-08T05:38:03.777Z,100.00
2023-04-08T05:41:05.756Z,100.00
2023-04-08T05:44:05.775Z,100.00
2023-04-08T05:47:06.842Z,100.00
2023-04-08T05:50:06.843Z,100.00
2023-04-08T05:53:06.747Z,100.00
2023-04-08T05:56:07.791Z,100.00
2023-04-08T05:59:07.782Z,100.00
2023-04-08T06:02:07.948Z,100.00
2023-04-08T06:05:07.810Z,100.00
2023-04-08T06:08:08.787Z,100.00
2023-04-08T06:11:12.758Z,100.00
2023-04-08T06:14:13.813Z,100.00
2023-04-08T06:17:13.791Z,100.00
2023-04-08T06:20:14.809Z,100.00
2023-04-08T06:23:14.850Z,100.00
2023-04-08T06:26:15.833Z,100.00
2023-04-08T06:29:15.766Z,100.00
2023-04-08T06:32:16.862Z,100.00
2023-04-08T06:35:16.879Z,100.00
2023-04-08T06:38:17.818Z,100.00
2023-04-08T06:41:17.882Z,100.00
2023-04-08T06:44:18.179Z,100.00
2023-04-08T06:47:18.834Z,100.00
2023-04-08T06:50:18.863Z,100.00
2023-04-08T06:53:19.916Z,100.00
2023-04-08T06:56:19.877Z,100.00
2023-04-08T06:59:20.865Z,100.00
2023-04-08T07:02:22.024Z,100.00
2023-04-08T07:05:22.944Z,100.00
2023-04-08T07:08:22.916Z,100.00
2023-04-08T07:11:23.900Z,100.00
2023-04-08T07:14:35.964Z,99.47
2023-04-08T07:17:39.937Z,95.16
2023-04-08T07:20:43.986Z,93.70
2023-04-08T07:23:47.120Z,92.14
2023-04-08T07:26:47.009Z,90.37
2023-04-08T07:29:47.957Z,88.81
2023-04-08T07:32:48.055Z,86.33
2023-04-08T07:35:48.022Z,84.05
2023-04-08T07:38:51.066Z,78.53
2023-04-08T07:41:56.958Z,73.28
2023-04-08T07:44:58.968Z,69.07
2023-04-08T07:48:00.102Z,63.41
2023-04-08T07:51:08.793Z,60.33
2023-04-08T07:54:11.046Z,54.75
2023-04-08T07:57:10.944Z,53.35
2023-04-08T08:00:14.374Z,51.27
2023-04-08T08:03:34.230Z,50.65
2023-04-08T08:06:35.135Z,49.08
2023-04-08T08:09:35.069Z,47.21
2023-04-08T08:12:34.983Z,45.79
2023-04-08T08:15:39.106Z,44.45
2023-04-08T08:18:40.333Z,43.63
2023-04-08T08:21:43.073Z,42.16
2023-04-08T08:24:43.111Z,41.91
2023-04-08T08:27:43.035Z,40.56
2023-04-08T08:30:44.082Z,40.05
2023-04-08T08:33:45.029Z,39.46
2023-04-08T08:36:48.023Z,39.01
2023-04-08T08:39:49.058Z,38.89
2023-04-08T08:42:51.217Z,39.15
2023-04-08T08:45:54.085Z,38.81
2023-04-08T08:48:55.067Z,37.35
2023-04-08T08:51:58.127Z,37.22
2023-04-08T08:55:00.637Z,36.13
2023-04-08T08:58:04.220Z,35.47
2023-04-08T09:01:06.186Z,35.95
2023-04-08T09:04:38.276Z,36.63
2023-04-08T09:07:38.173Z,38.36
2023-04-08T09:10:41.274Z,39.08
2023-04-08T09:13:48.600Z,39.81
2023-04-08T09:16:57.673Z,39.53
2023-04-08T09:20:22.244Z,39.71
2023-04-08T09:23:23.183Z,39.64
2023-04-08T09:26:25.192Z,38.84
2023-04-08T09:29:27.634Z,38.11
2023-04-08T09:32:29.344Z,37.16
2023-04-08T09:35:29.280Z,36.59
2023-04-08T09:38:30.304Z,36.01
2023-04-08T09:41:32.623Z,35.68
2023-04-08T09:44:38.227Z,35.83
2023-04-08T09:47:39.347Z,36.27
2023-04-08T09:50:42.253Z,36.94
2023-04-08T09:53:43.199Z,37.47
2023-04-08T09:56:45.236Z,38.47
2023-04-08T09:59:46.219Z,39.70
2023-04-08T10:02:48.469Z,40.87
2023-04-08T10:05:50.240Z,41.50
2023-04-08T10:08:51.192Z,41.93
2023-04-08T10:11:51.270Z,42.47
2023-04-08T10:14:52.218Z,43.07
2023-04-08T10:17:53.290Z,42.80
2023-04-08T10:20:54.307Z,41.65
2023-04-08T10:24:13.771Z,41.53
2023-04-08T10:27:20.305Z,42.12
2023-04-08T10:30:40.280Z,42.70
2023-04-08T10:33:50.447Z,43.42
2023-04-08T10:36:51.306Z,43.99
2023-04-08T10:39:53.289Z,45.11
2023-04-08T10:42:54.316Z,45.91
2023-04-08T10:45:58.289Z,46.48
2023-04-08T10:48:59.304Z,46.95
2023-04-08T10:52:08.610Z,47.42
2023-04-08T10:55:08.692Z,48.18
2023-04-08T10:58:08.300Z,48.15
2023-04-08T11:01:08.347Z,46.92
2023-04-08T11:04:08.380Z,45.63
2023-04-08T11:07:12.548Z,45.84
2023-04-08T11:10:24.375Z,45.25
2023-04-08T11:13:30.334Z,45.64
2023-04-08T11:16:30.547Z,45.15
2023-04-08T11:19:30.659Z,44.77
2023-04-08T11:22:33.385Z,44.95
2023-04-08T11:25:35.423Z,43.99
2023-04-08T11:28:37.462Z,42.08
2023-04-08T11:31:37.411Z,39.43
2023-04-08T11:34:38.569Z,38.29
2023-04-08T11:37:39.390Z,36.70
2023-04-08T11:40:45.443Z,35.21
2023-04-08T11:43:46.359Z,34.71
2023-04-08T11:46:47.535Z,35.66
2023-04-08T11:49:56.411Z,35.28
2023-04-08T11:52:58.424Z,34.87
2023-04-08T11:55:58.480Z,34.16
2023-04-08T11:59:00.657Z,33.61
2023-04-08T12:02:01.508Z,33.30
2023-04-08T12:05:01.468Z,32.51
2023-04-08T12:08:02.471Z,33.50
2023-04-08T12:11:16.562Z,33.24
2023-04-08T12:14:20.454Z,31.70
2023-04-08T12:17:20.441Z,31.91
2023-04-08T12:20:23.503Z,32.60
2023-04-08T12:23:25.482Z,32.50
2023-04-08T12:26:25.513Z,31.95
2023-04-08T12:29:26.642Z,32.67
2023-04-08T12:32:26.506Z,30.99
2023-04-08T12:35:26.473Z,31.64
2023-04-08T12:38:26.502Z,32.29
2023-04-08T12:41:26.583Z,32.28
2023-04-08T12:44:26.520Z,32.27
2023-04-08T12:47:27.555Z,32.58
2023-04-08T12:50:29.539Z,32.28
2023-04-08T12:53:31.528Z,32.38
2023-04-08T12:56:32.555Z,32.86
2023-04-08T12:59:35.574Z,33.67
2023-04-08T13:02:35.675Z,34.98
2023-04-08T13:05:43.386Z,35.58
2023-04-08T13:08:43.751Z,36.63
2023-04-08T13:11:49.600Z,37.78
2023-04-08T13:14:50.668Z,38.36
2023-04-08T13:17:51.643Z,39.01
2023-04-08T13:20:55.611Z,39.78
2023-04-08T13:23:56.575Z,40.66
2023-04-08T13:26:57.611Z,41.86
2023-04-08T13:30:00.592Z,44.40
2023-04-08T13:33:04.896Z,46.68
2023-04-08T13:36:20.772Z,49.04
2023-04-08T13:39:23.770Z,51.36
2023-04-08T13:42:25.692Z,54.41
2023-04-08T13:45:26.637Z,56.76
2023-04-08T13:48:26.745Z,59.00
2023-04-08T13:51:29.620Z,63.04
2023-04-08T13:54:35.644Z,65.77
2023-04-08T13:57:35.764Z,68.89
2023-04-08T14:00:39.704Z,71.33
2023-04-08T14:03:42.643Z,73.42
2023-04-08T14:06:42.595Z,73.70
2023-04-08T14:09:43.682Z,74.00
2023-04-08T14:12:43.686Z,73.99
2023-04-08T14:15:46.797Z,73.98
2023-04-08T14:18:49.222Z,73.03
2023-04-08T14:21:49.751Z,71.54
2023-04-08T14:24:50.699Z,69.31
2023-04-08T14:27:57.322Z,67.30
2023-04-08T14:31:03.172Z,65.25
2023-04-08T14:34:07.763Z,64.99
2023-04-08T14:37:08.759Z,64.71
2023-04-08T14:40:08.725Z,64.01
2023-04-08T14:43:10.790Z,63.56
2023-04-08T14:46:10.773Z,62.05
2023-04-08T14:49:10.705Z,61.45
2023-04-08T14:52:10.764Z,60.81
2023-04-08T14:55:10.714Z,59.46
2023-04-08T14:58:10.919Z,59.54
2023-04-08T15:01:11.806Z,58.58
2023-04-08T15:04:11.818Z,58.07
2023-04-08T15:07:15.812Z,57.02
2023-04-08T15:10:15.758Z,54.95
2023-04-08T15:13:16.804Z,53.48
2023-04-08T15:16:16.829Z,51.90
2023-04-08T15:19:17.802Z,55.72
2023-04-08T15:22:18.952Z,59.78
2023-04-08T15:25:18.842Z,63.53
2023-04-08T15:28:18.888Z,65.46
2023-04-08T15:31:18.918Z,68.57
2023-04-08T15:34:18.802Z,72.64
2023-04-08T15:37:19.835Z,77.58
2023-04-08T15:40:20.844Z,80.94
2023-04-08T15:43:21.889Z,83.29
2023-04-08T15:46:21.863Z,85.18
2023-04-08T15:49:22.865Z,86.43
2023-04-08T15:52:23.863Z,88.27
2023-04-08T15:55:25.284Z,88.93
2023-04-08T15:58:25.818Z,89.04
2023-04-08T16:01:25.991Z,89.19
2023-04-08T16:04:31.600Z,88.59
2023-04-08T16:07:31.923Z,88.15
2023-04-08T16:10:31.934Z,87.92
2023-04-08T16:13:31.869Z,87.36
2023-04-08T16:16:32.050Z,86.03
2023-04-08T16:19:33.976Z,85.34
2023-04-08T16:22:26.973Z,85.02
2023-04-08T16:25:28.221Z,84.87
2023-04-08T16:28:29.985Z,84.61
2023-04-08T16:34:31.308Z,84.25
2023-04-08T16:37:33.004Z,84.49
2023-04-08T16:40:32.913Z,85.53
2023-04-08T16:43:32.938Z,86.59
2023-04-08T16:46:33.994Z,87.35
2023-04-08T16:49:33.927Z,87.34
2023-04-08T16:52:34.059Z,87.03
2023-04-08T16:55:34.936Z,86.24
2023-04-08T16:58:35.923Z,85.78
2023-04-08T17:01:42.077Z,85.24
2023-04-08T17:04:41.955Z,84.41
2023-04-08T17:07:41.990Z,83.48
2023-04-08T17:10:42.260Z,82.82
2023-04-08T17:13:43.059Z,82.18
2023-04-08T17:16:46.143Z,81.55
2023-04-08T17:19:46.071Z,81.17
2023-04-08T17:22:46.023Z,80.94
2023-04-08T17:25:46.003Z,80.88
2023-04-08T17:28:46.075Z,80.98
2023-04-08T17:31:47.094Z,81.35
2023-04-08T17:34:47.057Z,82.01
2023-04-08T17:37:51.047Z,82.85
2023-04-08T17:40:51.224Z,83.60
2023-04-08T17:43:53.066Z,84.09
2023-04-08T17:46:54.072Z,84.31
2023-04-08T17:49:54.063Z,84.34
2023-04-08T17:52:59.054Z,84.46
2023-04-08T17:56:01.096Z,84.37
2023-04-08T17:59:02.170Z,85.57
2023-04-08T18:02:07.191Z,86.05
2023-04-08T18:05:09.743Z,85.18
2023-04-08T18:08:10.077Z,85.21
2023-04-08T18:11:11.131Z,85.76
2023-04-08T18:14:13.171Z,86.05
2023-04-08T18:17:13.146Z,87.08
2023-04-08T18:20:14.131Z,87.65
2023-04-08T18:23:14.073Z,87.91
2023-04-08T18:26:14.189Z,87.92
2023-04-08T18:29:14.113Z,86.97
2023-04-08T18:32:15.167Z,86.01
2023-04-08T18:35:15.145Z,85.56
2023-04-08T18:38:15.185Z,85.24
2023-04-08T18:41:16.157Z,85.46
2023-04-08T18:44:16.159Z,86.28
2023-04-08T18:47:16.150Z,87.15
2023-04-08T18:50:16.228Z,87.65
2023-04-08T18:53:18.186Z,88.42
2023-04-08T18:56:18.165Z,89.27
2023-04-08T18:59:20.149Z,90.04
2023-04-08T19:02:20.263Z,91.00
2023-04-08T19:05:21.260Z,91.68
2023-04-08T19:08:22.147Z,92.09
2023-04-08T19:11:22.215Z,92.78
2023-04-08T19:14:22.235Z,93.49
2023-04-08T19:17:24.337Z,93.78
2023-04-08T19:20:25.234Z,94.08
2023-04-08T19:23:25.224Z,94.32
2023-04-08T19:26:25.276Z,95.06
2023-04-08T19:29:26.366Z,95.78
2023-04-08T19:32:27.297Z,96.67
2023-04-08T19:35:27.206Z,97.56
2023-04-08T19:38:28.236Z,98.52
2023-04-08T19:41:29.223Z,99.22
2023-04-08T19:44:32.296Z,99.30
2023-04-08T19:47:32.272Z,99.56
2023-04-08T19:50:32.322Z,99.29
2023-04-08T19:53:32.243Z,98.66
2023-04-08T19:56:32.293Z,98.93
2023-04-08T19:59:32.228Z,99.26
2023-04-08T20:02:32.501Z,99.59
2023-04-08T20:05:33.254Z,99.80
2023-04-08T20:08:35.307Z,100.00
2023-04-08T20:11:35.340Z,100.00
2023-04-08T20:14:38.307Z,100.00
2023-04-08T20:17:38.451Z,100.00
2023-04-08T20:20:38.300Z,100.00
2023-04-08T20:23:39.335Z,100.00
2023-04-08T20:26:39.320Z,100.00
2023-04-08T20:29:39.325Z,100.00
2023-04-08T20:32:40.400Z,100.00
2023-04-08T20:35:40.411Z,100.00
2023-04-08T20:38:43.049Z,100.00
2023-04-08T20:41:43.626Z,100.00
2023-04-08T20:44:44.505Z,100.00
2023-04-08T20:47:50.478Z,100.00
2023-04-08T20:50:51.338Z,100.00
2023-04-08T20:53:52.337Z,100.00
2023-04-08T20:56:52.353Z,100.00
2023-04-08T20:59:55.455Z,100.00
2023-04-08T21:02:57.468Z,100.00
2023-04-08T21:05:58.357Z,100.00
2023-04-08T21:09:01.465Z,100.00
2023-04-08T21:12:04.446Z,100.00
2023-04-08T21:15:04.795Z,100.00
2023-04-08T21:18:05.474Z,100.00
2023-04-08T21:21:07.585Z,100.00
2023-04-08T21:24:07.423Z,100.00
2023-04-08T21:27:07.444Z,100.00
2023-04-08T21:30:07.412Z,100.00
2023-04-08T21:33:07.523Z,100.00
2023-04-08T21:36:08.505Z,100.00
2023-04-08T21:39:08.427Z,100.00
2023-04-08T21:42:09.486Z,100.00
2023-04-08T21:45:09.478Z,100.00
2023-04-08T21:48:09.571Z,100.00
2023-04-08T21:51:09.453Z,100.00
2023-04-08T21:54:10.461Z,100.00
2023-04-08T21:57:10.482Z,100.00
2023-04-08T22:00:18.517Z,100.00
2023-04-08T22:03:20.575Z,100.00
2023-04-08T22:06:31.590Z,100.00
2023-04-08T22:09:33.490Z,100.00
2023-04-08T22:12:33.532Z,100.00
2023-04-08T22:15:42.538Z,100.00
2023-04-08T22:18:44.546Z,100.00
2023-04-08T22:21:49.581Z,100.00
2023-04-08T22:24:49.984Z,100.00
2023-04-08T22:27:50.515Z,100.00
2023-04-08T22:30:50.564Z,100.00
2023-04-08T22:33:56.538Z,100.00
2023-04-08T22:36:58.823Z,100.00
2023-04-08T22:40:00.565Z,100.00
2023-04-08T22:43:00.585Z,100.00
2023-04-08T22:46:01.609Z,100.00
2023-04-08T22:49:02.599Z,100.00
2023-04-08T22:52:04.799Z,100.00
2023-04-08T22:55:05.570Z,100.00
2023-04-08T22:58:11.823Z,100.00
2023-04-08T23:01:11.752Z,100.00
2023-04-08T23:04:12.703Z,100.00
2023-04-08T23:07:16.631Z,100.00
2023-04-08T23:10:18.645Z,100.00
2023-04-08T23:13:19.686Z,100.00
2023-04-08T23:16:21.728Z,100.00
2023-04-08T23:19:24.645Z,100.00
2023-04-08T23:22:25.714Z,100.00
2023-04-08T23:25:25.697Z,100.00
2023-04-08T23:28:31.663Z,100.00
2023-04-08T23:31:31.712Z,100.00
2023-04-08T23:34:32.630Z,100.00
2023-04-08T23:37:32.710Z,100.00
2023-04-08T23:40:33.709Z,100.00
2023-04-08T23:43:41.707Z,100.00
2023-04-08T23:46:41.711Z,100.00
2023-04-08T23:49:42.671Z,100.00
2023-04-08T23:52:43.755Z,100.00
2023-04-08T23:55:47.046Z,100.00
2023-04-08T23:58:46.691Z,100.00
